createdAt,value
2019-01-19T00:00:15.676Z,4.90
2019-01-19T00:02:47.999Z,4.77
2019-01-19T00:05:49.186Z,4.70
2019-01-19T00:08:27.369Z,3.17
2019-01-19T00:11:15.028Z,4.27
2019-01-19T00:14:00.633Z,3.00
2019-01-19T00:17:06.313Z,3.07
2019-01-19T00:20:07.242Z,4.77
2019-01-19T00:22:45.405Z,5.30
2019-01-19T00:25:29.813Z,3.33
2019-01-19T00:28:07.869Z,2.87
2019-01-19T00:30:46.369Z,3.93
2019-01-19T00:33:36.311Z,3.83
2019-01-19T00:36:14.148Z,4.73
2019-01-19T00:38:58.637Z,4.17
2019-01-19T00:42:09.143Z,4.30
2019-01-19T00:44:49.265Z,6.60
2019-01-19T00:47:33.699Z,4.67
2019-01-19T00:50:17.812Z,3.57
2019-01-19T00:52:54.730Z,3.03
2019-01-19T00:56:00.215Z,4.50
2019-01-19T00:58:32.547Z,4.30
2019-01-19T01:01:04.863Z,2.63
2019-01-19T01:03:47.698Z,3.77
2019-01-19T01:06:29.237Z,3.07
2019-01-19T01:09:26.697Z,3.07
2019-01-19T01:12:00.276Z,4.30
2019-01-19T01:15:11.387Z,5.10
2019-01-19T01:17:43.465Z,4.30
2019-01-19T01:20:30.822Z,4.30
2019-01-19T01:23:20.519Z,3.97
2019-01-19T01:25:56.905Z,6.73
2019-01-19T01:28:34.519Z,6.93
2019-01-19T01:31:18.963Z,2.90
2019-01-19T01:33:59.801Z,4.13
2019-01-19T01:36:47.921Z,3.10
2019-01-19T01:39:24.861Z,7.20
2019-01-19T01:42:06.266Z,3.80
2019-01-19T01:44:51.508Z,3.23
2019-01-19T01:47:39.711Z,4.83
2019-01-19T01:50:21.684Z,3.23
2019-01-19T01:53:05.122Z,6.03
2019-01-19T01:55:52.071Z,3.97
2019-01-19T01:58:17.872Z,6.40
2019-01-19T02:00:53.844Z,5.63
2019-01-19T02:03:29.576Z,2.30
2019-01-19T02:06:15.121Z,4.37
2019-01-19T02:09:07.148Z,3.43
2019-01-19T02:11:45.240Z,2.43
2019-01-19T02:14:23.954Z,4.00
2019-01-19T02:17:02.913Z,4.23
2019-01-19T02:19:52.645Z,2.27
2019-01-19T02:22:49.103Z,2.70
2019-01-19T02:25:39.126Z,2.87
2019-01-19T02:28:21.174Z,2.63
2019-01-19T02:31:10.134Z,3.60
2019-01-19T02:33:45.714Z,6.60
2019-01-19T02:36:21.627Z,4.27
2019-01-19T02:39:02.638Z,2.97
2019-01-19T02:41:58.870Z,3.97
2019-01-19T02:44:47.149Z,3.33
2019-01-19T02:47:34.122Z,5.20
2019-01-19T02:50:17.923Z,4.77
2019-01-19T02:53:01.257Z,3.87
2019-01-19T02:55:52.119Z,7.00
2019-01-19T02:58:40.540Z,3.27
2019-01-19T03:01:45.828Z,3.83
2019-01-19T03:04:36.906Z,2.33
2019-01-19T03:07:30.139Z,6.20
2019-01-19T03:10:14.970Z,3.03
2019-01-19T03:13:12.821Z,3.83
2019-01-19T03:15:56.914Z,3.07
2019-01-19T03:18:40.385Z,4.67
2019-01-19T03:21:31.745Z,2.33
2019-01-19T03:24:13.371Z,3.00
2019-01-19T03:27:00.316Z,2.57
2019-01-19T03:29:47.888Z,3.30
2019-01-19T03:32:46.040Z,4.50
2019-01-19T03:35:28.409Z,5.23
2019-01-19T03:38:22.346Z,4.37
2019-01-19T03:41:14.521Z,4.80
2019-01-19T03:44:05.012Z,3.40
2019-01-19T03:46:53.218Z,2.37
2019-01-19T03:49:34.794Z,3.67
2019-01-19T03:52:19.159Z,3.50
2019-01-19T03:55:16.297Z,3.67
2019-01-19T03:58:04.209Z,2.17
2019-01-19T04:00:42.569Z,3.83
2019-01-19T04:03:36.320Z,5.47
2019-01-19T04:06:27.036Z,2.63
2019-01-19T04:09:12.215Z,2.20
2019-01-19T04:12:02.767Z,3.17
2019-01-19T04:15:08.992Z,3.53
2019-01-19T04:18:13.350Z,2.17
2019-01-19T04:21:07.318Z,2.20
2019-01-19T04:23:37.029Z,2.77
2019-01-19T04:26:12.240Z,3.83
2019-01-19T04:28:43.296Z,3.60
2019-01-19T04:31:17.875Z,2.70
2019-01-19T04:33:52.136Z,4.10
2019-01-19T04:36:25.654Z,2.93
2019-01-19T04:38:57.118Z,2.80
2019-01-19T04:41:28.254Z,3.37
2019-01-19T04:44:02.064Z,3.97
2019-01-19T04:46:33.931Z,3.87
2019-01-19T04:49:20.323Z,2.97
2019-01-19T04:51:46.227Z,4.03
2019-01-19T04:54:17.405Z,2.03
2019-01-19T04:56:50.964Z,3.70
2019-01-19T04:59:23.194Z,3.73
2019-01-19T05:01:59.459Z,3.63
2019-01-19T05:04:30.658Z,3.03
2019-01-19T05:07:05.734Z,3.33
2019-01-19T05:09:37.995Z,4.53
2019-01-19T05:12:09.534Z,2.50
2019-01-19T05:14:39.324Z,5.07
2019-01-19T05:17:17.094Z,3.17
2019-01-19T05:19:42.332Z,3.43
2019-01-19T05:22:13.202Z,3.17
2019-01-19T05:24:42.942Z,3.03
2019-01-19T05:27:12.554Z,3.53
2019-01-19T05:29:47.691Z,2.10
2019-01-19T05:32:20.832Z,3.53
2019-01-19T05:34:50.506Z,3.57
2019-01-19T05:37:21.419Z,10.27
2019-01-19T05:39:51.473Z,5.40
2019-01-19T05:42:21.252Z,3.57
2019-01-19T05:44:57.381Z,5.10
2019-01-19T05:47:27.929Z,3.20
2019-01-19T05:49:57.348Z,3.40
2019-01-19T05:52:30.160Z,4.70
2019-01-19T05:55:01.849Z,2.50
2019-01-19T05:57:34.562Z,5.80
2019-01-19T06:00:13.043Z,2.63
2019-01-19T06:02:42.435Z,4.27
2019-01-19T06:05:18.065Z,4.63
2019-01-19T06:08:01.896Z,3.33
2019-01-19T06:10:30.711Z,2.57
2019-01-19T06:16:02.809Z,3.70
2019-01-19T06:18:34.573Z,11.23
2019-01-19T06:21:05.887Z,2.93
2019-01-19T06:23:50.648Z,3.00
2019-01-19T06:26:41.371Z,3.33
2019-01-19T06:28:58.824Z,4.90
2019-01-19T06:31:28.739Z,3.07
2019-01-19T06:33:58.502Z,3.17
2019-01-19T06:36:28.387Z,4.70
2019-01-19T06:39:05.247Z,4.77
2019-01-19T06:41:39.563Z,2.93
2019-01-19T06:44:09.979Z,5.57
2019-01-19T06:46:39.307Z,5.30
2019-01-19T06:49:17.361Z,4.93
2019-01-19T06:51:45.200Z,4.27
2019-01-19T06:54:16.591Z,3.37
2019-01-19T06:56:46.561Z,2.70
2019-01-19T06:59:17.526Z,4.23
2019-01-19T07:01:50.823Z,6.80
2019-01-19T07:04:22.180Z,4.87
2019-01-19T07:06:52.002Z,2.57
2019-01-19T07:09:23.078Z,5.03
2019-01-19T07:11:55.737Z,3.60
2019-01-19T07:14:28.374Z,3.03
2019-01-19T07:16:58.263Z,3.53
2019-01-19T07:19:29.909Z,4.43
2019-01-19T07:21:59.034Z,3.73
2019-01-19T07:24:29.390Z,2.57
2019-01-19T07:27:04.653Z,2.13
2019-01-19T07:29:40.721Z,3.67
2019-01-19T07:32:11.798Z,2.93
2019-01-19T07:34:43.342Z,2.83
2019-01-19T07:37:13.195Z,6.87
2019-01-19T07:39:45.052Z,3.20
2019-01-19T07:42:17.503Z,4.83
2019-01-19T07:44:50.334Z,3.40
2019-01-19T07:47:21.987Z,2.97
2019-01-19T07:49:53.736Z,2.97
2019-01-19T07:52:30.872Z,3.00
2019-01-19T07:55:02.006Z,6.03
2019-01-19T07:57:38.809Z,5.23
2019-01-19T08:00:14.796Z,3.40
2019-01-19T08:02:59.863Z,5.63
2019-01-19T08:05:41.621Z,3.53
2019-01-19T08:08:08.563Z,6.93
2019-01-19T08:10:56.307Z,3.80
2019-01-19T08:13:44.428Z,3.57
2019-01-19T08:16:51.599Z,3.93
2019-01-19T08:19:24.613Z,4.10
2019-01-19T08:22:15.328Z,5.17
2019-01-19T08:24:48.868Z,4.93
2019-01-19T08:27:19.615Z,4.37
2019-01-19T08:29:54.709Z,5.20
2019-01-19T08:32:27.864Z,4.33
2019-01-19T08:34:59.944Z,3.60
2019-01-19T08:37:33.290Z,4.27
2019-01-19T08:40:08.462Z,2.73
2019-01-19T08:42:39.046Z,4.53
2019-01-19T08:45:11.198Z,3.40
2019-01-19T08:47:42.629Z,5.10
2019-01-19T08:50:23.994Z,4.10
2019-01-19T08:52:51.655Z,5.70
2019-01-19T08:55:23.211Z,4.87
2019-01-19T08:57:56.054Z,4.63
2019-01-19T09:00:27.365Z,3.90
2019-01-19T09:03:04.734Z,4.23
2019-01-19T09:05:34.984Z,6.50
2019-01-19T09:08:18.982Z,4.80
2019-01-19T09:10:45.993Z,4.83
2019-01-19T09:13:24.276Z,3.30
2019-01-19T09:16:00.520Z,3.93
2019-01-19T09:18:31.743Z,3.40
2019-01-19T09:21:05.654Z,5.07
2019-01-19T09:23:38.916Z,4.40
2019-01-19T09:26:16.270Z,7.00
2019-01-19T09:28:47.754Z,6.27
2019-01-19T09:31:18.997Z,6.67
2019-01-19T09:33:51.597Z,4.53
2019-01-19T09:36:24.611Z,6.67
2019-01-19T09:38:54.844Z,6.60
2019-01-19T09:41:31.529Z,5.17
2019-01-19T09:44:02.985Z,4.50
2019-01-19T09:46:41.444Z,3.93
2019-01-19T09:49:23.394Z,6.33
2019-01-19T09:52:07.003Z,6.60
2019-01-19T09:54:38.698Z,5.17
2019-01-19T09:57:14.509Z,5.73
2019-01-19T09:59:47.525Z,3.90
2019-01-19T10:02:22.327Z,3.37
2019-01-19T10:04:55.269Z,3.13
2019-01-19T10:07:27.541Z,4.17
2019-01-19T10:10:06.193Z,3.77
2019-01-19T10:12:38.239Z,4.60
2019-01-19T10:15:13.690Z,4.90
2019-01-19T10:17:45.719Z,6.27
2019-01-19T10:20:31.627Z,4.23
2019-01-19T10:23:09.444Z,4.57
2019-01-19T10:25:39.924Z,4.07
2019-01-19T10:28:13.454Z,5.67
2019-01-19T10:30:47.768Z,4.47
2019-01-19T10:33:19.572Z,5.33
2019-01-19T10:35:49.261Z,3.43
2019-01-19T10:38:19.104Z,5.23
2019-01-19T10:40:57.010Z,6.10
2019-01-19T10:43:30.262Z,6.90
2019-01-19T10:46:00.761Z,6.00
2019-01-19T10:48:32.960Z,6.03
2019-01-19T10:51:08.966Z,5.17
2019-01-19T10:53:35.654Z,5.87
2019-01-19T10:56:24.042Z,4.80
2019-01-19T10:58:54.630Z,4.63
2019-01-19T11:01:25.778Z,6.80
2019-01-19T11:03:57.794Z,6.23
2019-01-19T11:06:53.183Z,5.67
2019-01-19T11:09:29.538Z,5.30
2019-01-19T11:12:02.772Z,8.73
2019-01-19T11:14:32.722Z,7.80
2019-01-19T11:17:04.298Z,5.20
2019-01-19T11:19:43.108Z,5.03
2019-01-19T11:22:13.151Z,6.20
2019-01-19T11:24:48.163Z,6.37
2019-01-19T11:27:23.870Z,5.90
2019-01-19T11:29:55.445Z,6.97
2019-01-19T11:32:28.749Z,5.53
2019-01-19T11:35:01.245Z,6.67
2019-01-19T11:37:30.994Z,6.50
2019-01-19T11:40:01.911Z,7.10
2019-01-19T11:42:34.536Z,7.80
2019-01-19T11:45:27.278Z,6.90
2019-01-19T11:48:11.353Z,8.27
2019-01-19T11:50:55.909Z,6.33
2019-01-19T11:53:30.936Z,4.53
2019-01-19T11:56:11.948Z,9.73
2019-01-19T11:58:39.029Z,7.23
2019-01-19T12:01:21.427Z,4.67
2019-01-19T12:04:06.339Z,4.50
2019-01-19T12:06:35.869Z,6.63
2019-01-19T12:09:10.069Z,6.53
2019-01-19T12:11:46.271Z,4.57
2019-01-19T12:14:37.785Z,5.43
2019-01-19T12:17:08.627Z,4.60
2019-01-19T12:19:40.268Z,5.93
2019-01-19T12:22:11.195Z,6.23
2019-01-19T12:24:44.226Z,5.23
2019-01-19T12:27:23.270Z,5.23
2019-01-19T12:30:03.682Z,8.40
2019-01-19T12:32:40.919Z,4.30
2019-01-19T12:35:15.057Z,4.70
2019-01-19T12:37:49.519Z,4.07
2019-01-19T12:40:26.881Z,6.23
2019-01-19T12:43:12.338Z,3.93
2019-01-19T12:46:10.067Z,5.50
2019-01-19T12:48:41.970Z,5.20
2019-01-19T12:51:17.053Z,4.23
2019-01-19T12:53:48.433Z,5.30
2019-01-19T12:56:25.558Z,5.20
2019-01-19T12:59:00.061Z,3.70
2019-01-19T13:01:35.190Z,5.00
2019-01-19T13:04:12.262Z,4.30
2019-01-19T13:06:48.911Z,8.73
2019-01-19T13:09:20.305Z,5.73
2019-01-19T13:12:10.443Z,5.37
2019-01-19T13:14:47.483Z,3.07
2019-01-19T13:17:47.901Z,4.90
2019-01-19T13:20:34.909Z,5.00
2019-01-19T13:23:27.461Z,4.80
2019-01-19T13:26:10.667Z,4.17
2019-01-19T13:29:09.891Z,4.03
2019-01-19T13:31:54.144Z,4.70
2019-01-19T13:34:31.926Z,3.73
2019-01-19T13:37:08.354Z,4.27
2019-01-19T13:39:44.133Z,3.77
2019-01-19T13:42:37.003Z,3.03
2019-01-19T13:45:35.877Z,3.60
2019-01-19T13:48:37.891Z,5.43
2019-01-19T13:51:11.898Z,3.83
2019-01-19T13:53:52.439Z,4.67
2019-01-19T13:57:05.422Z,5.50
2019-01-19T13:59:41.800Z,5.77
2019-01-19T14:02:30.833Z,3.07
2019-01-19T14:05:22.781Z,6.50
2019-01-19T14:08:10.703Z,4.62
2019-01-19T14:11:14.246Z,3.63
2019-01-19T14:13:55.364Z,4.57
2019-01-19T14:16:35.176Z,4.70
2019-01-19T14:19:37.929Z,2.70
2019-01-19T14:22:13.663Z,4.20
2019-01-19T14:25:07.345Z,2.53
2019-01-19T14:28:01.258Z,6.70
2019-01-19T14:30:47.219Z,4.47
2019-01-19T14:33:25.175Z,5.15
2019-01-19T14:36:14.322Z,2.70
2019-01-19T14:39:09.079Z,4.37
2019-01-19T14:41:53.008Z,4.17
2019-01-19T14:44:41.637Z,4.60
2019-01-19T14:47:22.596Z,1.93
2019-01-19T14:49:57.644Z,4.47
2019-01-19T14:52:33.878Z,3.93
2019-01-19T14:55:12.964Z,3.13
2019-01-19T14:58:03.683Z,4.65
2019-01-19T15:00:45.563Z,3.40
2019-01-19T15:03:30.660Z,2.87
2019-01-19T15:06:24.524Z,3.40
2019-01-19T15:09:21.645Z,3.43
2019-01-19T15:12:06.662Z,3.67
2019-01-19T15:14:42.535Z,3.10
2019-01-19T15:17:42.329Z,3.77
2019-01-19T15:20:24.723Z,3.13
2019-01-19T15:23:44.324Z,3.07
2019-01-19T15:26:37.433Z,2.73
2019-01-19T15:29:32.352Z,6.53
2019-01-19T15:32:40.332Z,3.80
2019-01-19T15:35:20.282Z,4.20
2019-01-19T15:38:10.651Z,3.00
2019-01-19T15:40:56.596Z,3.63
2019-01-19T15:43:39.221Z,4.60
2019-01-19T15:46:28.710Z,4.30
2019-01-19T15:49:28.006Z,6.50
2019-01-19T15:52:07.568Z,4.07
2019-01-19T15:55:10.045Z,4.03
2019-01-19T15:57:48.491Z,3.23
2019-01-19T16:00:46.352Z,9.60
2019-01-19T16:03:31.187Z,4.27
2019-01-19T16:06:34.167Z,7.30
2019-01-19T16:09:36.203Z,5.90
2019-01-19T16:12:30.567Z,6.43
2019-01-19T16:15:10.189Z,4.60
2019-01-19T16:17:48.473Z,4.03
2019-01-19T16:20:23.755Z,3.00
2019-01-19T16:23:18.449Z,9.27
2019-01-19T16:26:17.177Z,4.83
2019-01-19T16:28:57.587Z,3.80
2019-01-19T16:31:29.652Z,4.70
2019-01-19T16:34:28.312Z,5.50
2019-01-19T16:37:17.625Z,3.37
2019-01-19T16:40:25.568Z,8.67
2019-01-19T16:43:13.878Z,2.73
2019-01-19T16:45:58.353Z,3.47
2019-01-19T16:49:02.874Z,7.17
2019-01-19T16:52:10.449Z,7.63
2019-01-19T16:54:56.629Z,4.73
2019-01-19T16:57:42.596Z,4.00
2019-01-19T17:00:36.233Z,2.43
2019-01-19T17:03:36.075Z,4.20
2019-01-19T17:06:14.076Z,4.37
2019-01-19T17:12:11.766Z,8.43
2019-01-19T17:15:10.868Z,8.50
2019-01-19T17:17:57.909Z,5.17
2019-01-19T17:20:40.988Z,6.40
2019-01-19T17:23:31.582Z,5.23
2019-01-19T17:26:29.843Z,10.20
2019-01-19T17:29:11.055Z,5.97
2019-01-19T17:32:07.790Z,5.73
2019-01-19T17:34:55.724Z,7.73
2019-01-19T17:37:32.930Z,8.23
2019-01-19T17:40:13.985Z,7.77
2019-01-19T17:42:58.302Z,17.33
2019-01-19T17:45:45.808Z,10.17
2019-01-19T17:48:19.439Z,10.67
2019-01-19T17:51:07.164Z,11.77
2019-01-19T17:54:05.438Z,11.00
2019-01-19T17:57:02.377Z,7.93
2019-01-19T17:59:43.871Z,10.37
2019-01-19T18:02:40.474Z,15.60
2019-01-19T18:05:18.064Z,21.27
2019-01-19T18:08:22.566Z,9.00
2019-01-19T18:11:15.151Z,14.20
2019-01-19T18:14:23.240Z,7.67
2019-01-19T18:17:13.234Z,10.67
2019-01-19T18:20:07.947Z,6.63
2019-01-19T18:22:49.008Z,6.83
2019-01-19T18:25:56.315Z,7.47
2019-01-19T18:28:33.868Z,9.43
2019-01-19T18:31:20.868Z,8.17
2019-01-19T18:33:56.123Z,6.87
2019-01-19T18:36:50.317Z,18.00
2019-01-19T18:39:25.820Z,10.27
2019-01-19T18:42:17.706Z,12.13
2019-01-19T18:44:59.537Z,9.67
2019-01-19T18:47:43.671Z,12.00
2019-01-19T18:50:18.881Z,14.07
2019-01-19T18:52:53.823Z,13.70
2019-01-19T18:55:37.911Z,10.77
2019-01-19T18:58:29.425Z,13.43
2019-01-19T19:01:10.738Z,11.90
2019-01-19T19:03:48.592Z,16.10
2019-01-19T19:07:00.296Z,14.40
2019-01-19T19:09:52.367Z,15.77
2019-01-19T19:12:58.386Z,18.37
2019-01-19T19:15:59.969Z,12.27
2019-01-19T19:18:45.774Z,12.87
2019-01-19T19:21:41.112Z,15.93
2019-01-19T19:24:28.273Z,12.80
2019-01-19T19:27:10.319Z,11.80
2019-01-19T19:30:08.003Z,11.57
2019-01-19T19:32:53.365Z,10.47
2019-01-19T19:35:31.425Z,9.20
2019-01-19T19:38:33.195Z,8.67
2019-01-19T19:41:17.478Z,11.83
2019-01-19T19:44:01.782Z,9.33
2019-01-19T19:46:41.284Z,8.23
2019-01-19T19:49:30.397Z,8.23
2019-01-19T19:52:07.537Z,6.80
2019-01-19T19:54:39.558Z,6.03
2019-01-19T19:57:13.127Z,12.27
2019-01-19T19:59:45.240Z,9.30
2019-01-19T20:02:18.151Z,8.70
2019-01-19T20:04:50.121Z,8.27
2019-01-19T20:07:22.913Z,10.07
2019-01-19T20:09:52.331Z,10.67
2019-01-19T20:12:25.887Z,10.57
2019-01-19T20:15:06.664Z,7.03
2019-01-19T20:20:25.255Z,9.77
2019-01-19T20:22:59.445Z,7.43
2019-01-19T20:25:30.813Z,9.47
2019-01-19T20:28:02.195Z,8.07
2019-01-19T20:30:34.842Z,9.30
2019-01-19T20:33:08.464Z,20.03
2019-01-19T20:35:45.622Z,8.97
2019-01-19T20:38:31.209Z,11.23
2019-01-19T20:41:02.521Z,10.37
2019-01-19T20:43:32.427Z,10.77
2019-01-19T20:46:04.692Z,7.43
2019-01-19T20:48:36.899Z,7.53
2019-01-19T20:51:09.199Z,11.60
2019-01-19T20:53:43.494Z,10.23
2019-01-19T20:56:13.006Z,12.93
2019-01-19T20:58:45.853Z,8.53
2019-01-19T21:01:19.414Z,14.17
2019-01-19T21:03:53.714Z,9.87
2019-01-19T21:06:26.096Z,13.33
2019-01-19T21:09:01.477Z,10.53
2019-01-19T21:11:37.147Z,11.07
2019-01-19T21:14:09.418Z,13.73
2019-01-19T21:16:53.815Z,11.87
2019-01-19T21:19:32.495Z,15.43
2019-01-19T21:22:03.320Z,7.93
2019-01-19T21:24:38.849Z,12.87
2019-01-19T21:27:09.242Z,14.53
2019-01-19T21:29:43.817Z,9.53
2019-01-19T21:32:18.381Z,9.50
2019-01-19T21:35:02.221Z,12.63
2019-01-19T21:37:36.448Z,9.77
2019-01-19T21:40:11.964Z,15.50
2019-01-19T21:42:41.637Z,8.07
2019-01-19T21:45:31.937Z,9.50
2019-01-19T21:48:01.672Z,5.10
2019-01-19T21:50:46.295Z,6.93
2019-01-19T21:53:17.067Z,7.77
2019-01-19T21:55:46.569Z,7.30
2019-01-19T21:58:16.797Z,9.97
2019-01-19T22:00:50.423Z,9.13
2019-01-19T22:03:24.951Z,9.20
2019-01-19T22:05:58.050Z,7.70
2019-01-19T22:08:30.252Z,6.87
2019-01-19T22:10:59.789Z,7.13
2019-01-19T22:13:37.926Z,5.83
2019-01-19T22:16:11.624Z,6.60
2019-01-19T22:18:42.001Z,8.47
2019-01-19T22:21:22.291Z,11.57
2019-01-19T22:23:52.893Z,17.10
2019-01-19T22:26:33.385Z,9.20
2019-01-19T22:29:06.260Z,5.33
2019-01-19T22:31:35.800Z,5.67
2019-01-19T22:34:05.782Z,6.80
2019-01-19T22:36:36.949Z,6.80
2019-01-19T22:39:16.471Z,9.23
2019-01-19T22:41:52.169Z,12.63
2019-01-19T22:44:35.733Z,10.80
2019-01-19T22:47:07.403Z,18.20
2019-01-19T22:49:36.320Z,11.30
2019-01-19T22:52:10.096Z,9.20
2019-01-19T22:54:39.858Z,8.80
2019-01-19T22:57:10.120Z,7.30
2019-01-19T22:59:39.651Z,24.17
2019-01-19T23:02:12.274Z,10.77
2019-01-19T23:04:56.961Z,19.60
2019-01-19T23:07:27.920Z,9.27
2019-01-19T23:09:59.760Z,11.00
2019-01-19T23:12:33.852Z,11.20
2019-01-19T23:15:03.730Z,8.97
2019-01-19T23:17:33.664Z,10.07
2019-01-19T23:20:06.323Z,12.83
2019-01-19T23:22:44.708Z,11.47
2019-01-19T23:25:25.385Z,12.63
2019-01-19T23:27:57.490Z,9.47
2019-01-19T23:30:32.827Z,16.27
2019-01-19T23:33:02.566Z,10.30
2019-01-19T23:35:35.148Z,12.30
2019-01-19T23:38:07.150Z,10.57
2019-01-19T23:40:43.235Z,7.13
2019-01-19T23:43:15.229Z,9.47
2019-01-19T23:45:44.645Z,7.73
2019-01-19T23:48:26.305Z,7.07
2019-01-19T23:50:59.830Z,9.43
2019-01-19T23:53:35.701Z,5.17
2019-01-19T23:56:08.316Z,7.83
2019-01-19T23:58:41.548Z,8.20
